^^
Datos históricos de la estación: Murcia-Puente Tocinos
Diario Informe para Febrero 28, 2019 Unidades:  Métrico    Inglés   Ambas
Diario Semanal Mensual Anual Configurable
  Máximo: Mínimo: Media:
Temperatura: 27.6 °C 8.7 °C 16.7 °C
Punto de rocio: 8.7 °C -5.0 °C 2.1 °C
Humedad: 69% 12% 42%
Velocidad viento: 17.2km/h 0.0km/h 7.4km/h
Racha viento: 25.9km/h - -
Viento- - South
Presión: 1025.5 hPa 1021.4 hPa -
Precipitación: 0.0 mm    
Historical Graphs
 
 
Tabla de datos para Febrero 28, 2019
Hora Temperatura Punto de rocio Presión Viento Velocidad viento Racha viento Humedad Intensidad lluvia(por hora) Nubes
00:00 12.3 °C 5.7 °C 1025.3 hPa SSW 8.0 km/h 14.5 km/h 64% 0.0 mm CLR
00:07 12.2 °C 5.6 °C 1025.3 hPa SSW 6.9 km/h 11.1 km/h 64% 0.0 mm CLR
00:15 12.2 °C 5.3 °C 1025.3 hPa SSW 6.9 km/h 9.3 km/h 63% 0.0 mm CLR
00:24 12.2 °C 5.3 °C 1025.3 hPa SW 6.9 km/h 9.3 km/h 63% 0.0 mm CLR
00:32 12.2 °C 5.3 °C 1025.3 hPa WSW 6.4 km/h 9.3 km/h 63% 0.0 mm CLR
00:41 11.9 °C 5.5 °C 1025.4 hPa SW 5.8 km/h 9.3 km/h 65% 0.0 mm CLR
00:48 11.8 °C 5.4 °C 1025.5 hPa WSW 6.9 km/h 11.1 km/h 65% 0.0 mm CLR
00:53 11.9 °C 5.7 °C 1025.5 hPa South 6.9 km/h 11.9 km/h 66% 0.0 mm CLR
00:58 11.9 °C 5.5 °C 1025.5 hPa SE 8.7 km/h 13.0 km/h 65% 0.0 mm CLR
01:03 11.9 °C 5.7 °C 1025.4 hPa South 8.7 km/h 14.8 km/h 66% 0.0 mm CLR
01:08 11.7 °C 5.6 °C 1025.4 hPa SSW 10.0 km/h 9.3 km/h 66% 0.0 mm CLR
01:14 11.6 °C 5.7 °C 1025.4 hPa WSW 10.0 km/h 7.4 km/h 67% 0.0 mm CLR
01:19 11.5 °C 5.6 °C 1025.1 hPa WSW 6.4 km/h 7.4 km/h 67% 0.0 mm CLR
01:24 11.5 °C 5.4 °C 1025.1 hPa SSW 6.4 km/h 14.0 km/h 66% 0.0 mm CLR
01:29 11.6 °C 5.2 °C 1025.1 hPa WSW 6.9 km/h 11.1 km/h 65% 0.0 mm CLR
01:34 11.6 °C 4.8 °C 1025.0 hPa SW 6.9 km/h 9.3 km/h 63% 0.0 mm CLR
01:39 11.7 °C 4.9 °C 1025.0 hPa WSW 6.4 km/h 7.6 km/h 63% 0.0 mm CLR
01:44 11.6 °C 4.8 °C 1025.0 hPa WSW 6.4 km/h 9.3 km/h 63% 0.0 mm CLR
01:49 11.6 °C 4.6 °C 1025.0 hPa WSW 6.4 km/h 11.1 km/h 62% 0.0 mm CLR
01:54 11.5 °C 4.4 °C 1025.0 hPa WSW 6.4 km/h 13.0 km/h 62% 0.0 mm CLR
01:59 11.4 °C 4.4 °C 1025.0 hPa SW 7.6 km/h 7.4 km/h 62% 0.0 mm CLR
02:04 11.4 °C 4.4 °C 1025.1 hPa SW 7.6 km/h 7.4 km/h 62% 0.0 mm CLR
02:09 11.4 °C 4.4 °C 1025.1 hPa ESE 4.7 km/h 6.9 km/h 62% 0.0 mm CLR
02:14 11.1 °C 4.3 °C 1025.1 hPa SE 4.7 km/h 7.4 km/h 63% 0.0 mm CLR
02:19 10.6 °C 4.3 °C 1025.2 hPa SSE 4.7 km/h 5.6 km/h 65% 0.0 mm CLR
02:24 10.2 °C 4.3 °C 1025.2 hPa South 4.7 km/h 9.3 km/h 67% 0.0 mm CLR
02:29 9.9 °C 4.3 °C 1025.2 hPa SSE 5.0 km/h 5.6 km/h 68% 0.0 mm CLR
02:34 9.8 °C 4.4 °C 1025.3 hPa SSE 5.0 km/h 6.9 km/h 69% 0.0 mm CLR
02:39 9.7 °C 4.3 °C 1025.3 hPa South 4.7 km/h 11.1 km/h 69% 0.0 mm CLR
02:44 9.8 °C 4.2 °C 1025.3 hPa SW 4.7 km/h 13.0 km/h 68% 0.0 mm CLR
02:49 9.9 °C 3.6 °C 1025.1 hPa WSW 8.7 km/h 13.0 km/h 65% 0.0 mm CLR
02:54 10.2 °C 3.7 °C 1025.1 hPa SSW 8.7 km/h 10.0 km/h 64% 0.0 mm CLR
02:59 10.3 °C 3.6 °C 1025.1 hPa South 8.7 km/h 9.3 km/h 63% 0.0 mm CLR
03:04 10.2 °C 3.2 °C 1024.8 hPa South 8.7 km/h 14.8 km/h 62% 0.0 mm CLR
03:09 10.1 °C 2.9 °C 1024.8 hPa South 9.5 km/h 11.1 km/h 61% 0.0 mm CLR
03:14 10.1 °C 3.2 °C 1024.8 hPa WNW 9.5 km/h 9.3 km/h 62% 0.0 mm CLR
03:19 10.0 °C 2.8 °C 1024.7 hPa West 7.6 km/h 11.1 km/h 61% 0.0 mm CLR
03:24 9.9 °C 2.7 °C 1024.7 hPa WSW 7.6 km/h 7.4 km/h 61% 0.0 mm CLR
03:29 10.0 °C 2.3 °C 1024.7 hPa SW 5.8 km/h 10.0 km/h 59% 0.0 mm CLR
03:34 10.2 °C 1.8 °C 1024.5 hPa SW 5.8 km/h 13.0 km/h 56% 0.0 mm CLR
03:39 10.4 °C 1.5 °C 1024.5 hPa SW 8.7 km/h 18.5 km/h 54% 0.0 mm CLR
03:44 10.4 °C 1.5 °C 1024.5 hPa WSW 8.7 km/h 14.8 km/h 54% 0.0 mm CLR
03:49 10.4 °C 1.5 °C 1024.5 hPa SSW 9.5 km/h 13.7 km/h 54% 0.0 mm CLR
03:54 10.4 °C 1.2 °C 1024.5 hPa SSW 9.5 km/h 11.1 km/h 53% 0.0 mm CLR
03:59 10.3 °C 1.1 °C 1024.5 hPa SW 7.6 km/h 9.3 km/h 53% 0.0 mm CLR
04:04 10.2 °C 0.8 °C 1024.3 hPa SW 7.6 km/h 9.3 km/h 52% 0.0 mm CLR
04:09 10.2 °C 0.5 °C 1024.3 hPa SW 6.9 km/h 9.3 km/h 51% 0.0 mm CLR
04:14 10.2 °C 0.2 °C 1024.3 hPa SW 6.9 km/h 9.3 km/h 50% 0.0 mm CLR
04:19 10.2 °C 0.2 °C 1024.2 hPa SSW 6.9 km/h 9.3 km/h 50% 0.0 mm CLR
04:24 10.1 °C 0.7 °C 1024.2 hPa South 6.9 km/h 8.4 km/h 52% 0.0 mm CLR
04:29 9.8 °C 0.7 °C 1024.2 hPa South 5.8 km/h 9.3 km/h 53% 0.0 mm CLR
04:34 9.6 °C 0.7 °C 1024.1 hPa South 5.8 km/h 7.4 km/h 54% 0.0 mm CLR
04:39 9.3 °C 0.7 °C 1024.1 hPa SSE 6.4 km/h 9.5 km/h 55% 0.0 mm CLR
04:44 9.1 °C 0.8 °C 1024.1 hPa SSE 6.4 km/h 9.3 km/h 56% 0.0 mm CLR
04:49 8.9 °C 1.1 °C 1024.2 hPa SE 6.9 km/h 7.4 km/h 58% 0.0 mm CLR
04:54 8.8 °C 1.0 °C 1024.2 hPa SSW 6.9 km/h 8.4 km/h 58% 0.0 mm CLR
04:59 8.7 °C 0.7 °C 1024.2 hPa SSW 6.4 km/h 9.5 km/h 57% 0.0 mm CLR
05:04 8.8 °C 0.5 °C 1024.1 hPa WSW 6.4 km/h 11.1 km/h 56% 0.0 mm CLR
05:09 9.0 °C 0.4 °C 1024.1 hPa SW 6.9 km/h 9.5 km/h 55% 0.0 mm CLR
05:14 9.2 °C 0.4 °C 1024.1 hPa SW 6.9 km/h 11.1 km/h 54% 0.0 mm CLR
05:19 9.3 °C 0.2 °C 1024.1 hPa SW 8.4 km/h 9.3 km/h 53% 0.0 mm CLR
05:24 9.4 °C 0.3 °C 1024.1 hPa SW 8.4 km/h 9.3 km/h 53% 0.0 mm CLR
05:29 9.4 °C 0.0 °C 1024.1 hPa SSW 6.9 km/h 9.3 km/h 52% 0.0 mm CLR
05:34 9.5 °C -0.2 °C 1024.1 hPa WSW 6.9 km/h 7.4 km/h 51% 0.0 mm CLR
05:39 9.6 °C -0.1 °C 1024.1 hPa WSW 5.0 km/h 7.4 km/h 51% 0.0 mm CLR
05:44 9.6 °C -0.1 °C 1024.1 hPa WSW 5.0 km/h 5.6 km/h 51% 0.0 mm CLR
05:49 9.6 °C -0.1 °C 1024.3 hPa WSW 4.7 km/h 9.3 km/h 51% 0.0 mm CLR
05:54 9.7 °C 0.1 °C 1024.3 hPa SW 4.7 km/h 7.4 km/h 51% 0.0 mm CLR
05:59 9.7 °C -0.2 °C 1024.3 hPa WSW 5.0 km/h 7.4 km/h 50% 0.0 mm CLR
06:04 9.6 °C -0.3 °C 1024.3 hPa WSW 5.0 km/h 5.8 km/h 50% 0.0 mm CLR
06:09 9.7 °C -0.2 °C 1024.3 hPa WSW 4.7 km/h 9.3 km/h 50% 0.0 mm CLR
06:14 9.7 °C -0.5 °C 1024.3 hPa WSW 4.7 km/h 9.3 km/h 49% 0.0 mm CLR
06:19 9.6 °C -0.3 °C 1024.3 hPa WSW 6.4 km/h 9.5 km/h 50% 0.0 mm CLR
06:24 9.6 °C -0.3 °C 1024.3 hPa WSW 6.4 km/h 11.1 km/h 50% 0.0 mm CLR
06:29 9.6 °C -0.6 °C 1024.3 hPa SW 6.9 km/h 11.1 km/h 49% 0.0 mm CLR
06:34 9.7 °C -0.5 °C 1024.4 hPa SW 6.9 km/h 9.5 km/h 49% 0.0 mm CLR
06:39 9.8 °C -0.4 °C 1024.4 hPa WSW 6.4 km/h 10.3 km/h 49% 0.0 mm CLR
06:44 9.8 °C -0.4 °C 1024.4 hPa WSW 6.4 km/h 7.4 km/h 49% 0.0 mm CLR
06:49 9.8 °C -0.4 °C 1024.5 hPa WSW 5.8 km/h 7.4 km/h 49% 0.0 mm CLR
06:54 9.8 °C -0.4 °C 1024.5 hPa WSW 5.8 km/h 7.4 km/h 49% 0.0 mm CLR
06:59 9.8 °C -0.4 °C 1024.5 hPa WSW 5.0 km/h 5.6 km/h 49% 0.0 mm CLR
07:04 9.8 °C -0.4 °C 1024.6 hPa WSW 5.0 km/h 5.8 km/h 49% 0.0 mm CLR
07:09 9.8 °C -0.4 °C 1024.6 hPa WSW 4.7 km/h 5.6 km/h 49% 0.0 mm CLR
07:14 9.8 °C -0.4 °C 1024.6 hPa WSW 4.7 km/h 7.4 km/h 49% 0.0 mm CLR
07:19 9.7 °C -0.8 °C 1024.7 hPa WSW 4.7 km/h 9.3 km/h 48% 0.0 mm CLR
07:24 9.7 °C -0.8 °C 1024.7 hPa SW 4.7 km/h 9.3 km/h 48% 0.0 mm CLR
07:29 9.8 °C -0.7 °C 1024.7 hPa SW 6.9 km/h 11.1 km/h 48% 0.0 mm CLR
07:34 9.9 °C -0.9 °C 1024.8 hPa SW 6.9 km/h 11.1 km/h 47% 0.0 mm CLR
07:39 9.9 °C -0.9 °C 1024.8 hPa SW 7.6 km/h 9.3 km/h 47% 0.0 mm CLR
07:44 9.9 °C -1.2 °C 1024.8 hPa WSW 7.6 km/h 11.1 km/h 46% 0.0 mm CLR
07:49 9.9 °C -0.9 °C 1025.0 hPa WSW 6.4 km/h 10.0 km/h 47% 0.0 mm CLR
07:54 10.0 °C -1.1 °C 1025.0 hPa WSW 6.4 km/h 9.3 km/h 46% 0.0 mm CLR
07:59 10.2 °C -0.9 °C 1025.0 hPa WSW 6.9 km/h 8.7 km/h 46% 0.0 mm CLR
08:04 10.3 °C -0.8 °C 1025.0 hPa SW 6.9 km/h 9.3 km/h 46% 0.0 mm CLR
08:09 10.4 °C -1.1 °C 1025.0 hPa SW 6.9 km/h 9.3 km/h 45% 0.0 mm CLR
08:14 10.5 °C -0.9 °C 1025.0 hPa SW 6.9 km/h 9.3 km/h 45% 0.0 mm CLR
08:19 10.7 °C -0.8 °C 1025.2 hPa SW 6.9 km/h 9.3 km/h 45% 0.0 mm CLR
08:24 10.8 °C -0.7 °C 1025.2 hPa SW 6.9 km/h 7.4 km/h 45% 0.0 mm CLR
08:29 10.9 °C -0.6 °C 1025.2 hPa SW 5.0 km/h 5.6 km/h 45% 0.0 mm CLR
08:34 11.1 °C -0.4 °C 1025.3 hPa SW 5.0 km/h 7.4 km/h 45% 0.0 mm CLR
08:39 11.4 °C -0.4 °C 1025.3 hPa SW 4.7 km/h 7.4 km/h 44% 0.0 mm CLR
08:44 11.6 °C -0.6 °C 1025.3 hPa SW 4.7 km/h 7.4 km/h 43% 0.0 mm CLR
08:49 11.8 °C -0.4 °C 1025.3 hPa SW 5.0 km/h 7.4 km/h 43% 0.0 mm CLR
08:54 12.1 °C -0.1 °C 1025.3 hPa South 5.0 km/h 10.3 km/h 43% 0.0 mm CLR
08:59 12.4 °C -0.5 °C 1025.3 hPa SW 5.8 km/h 9.3 km/h 41% 0.0 mm CLR
09:04 12.7 °C -0.2 °C 1025.3 hPa SSW 5.8 km/h 9.3 km/h 41% 0.0 mm CLR
09:09 13.1 °C -0.2 °C 1025.3 hPa South 5.8 km/h 9.3 km/h 40% 0.0 mm CLR
09:14 13.4 °C 0.1 °C 1025.3 hPa WSW 5.8 km/h 9.3 km/h 40% 0.0 mm CLR
09:19 13.6 °C -0.1 °C 1025.5 hPa SSW 5.0 km/h 9.3 km/h 39% 0.0 mm CLR
09:24 14.0 °C -0.1 °C 1025.5 hPa SW 5.0 km/h 7.4 km/h 38% 0.0 mm CLR
09:29 14.4 °C -0.1 °C 1025.5 hPa SSW 5.8 km/h 10.3 km/h 37% 0.0 mm CLR
09:34 14.8 °C -0.2 °C 1025.4 hPa SSW 5.8 km/h 11.1 km/h 36% 0.0 mm CLR
09:39 15.1 °C -0.3 °C 1025.4 hPa South 6.9 km/h 11.1 km/h 35% 0.0 mm CLR
09:44 15.4 °C 0.0 °C 1025.4 hPa SW 6.9 km/h 11.1 km/h 35% 0.0 mm CLR
09:49 15.7 °C -0.1 °C 1025.4 hPa SW 7.6 km/h 13.0 km/h 34% 0.0 mm CLR
09:54 15.9 °C 0.1 °C 1025.4 hPa SSW 7.6 km/h 11.1 km/h 34% 0.0 mm CLR
09:59 16.3 °C 0.0 °C 1025.4 hPa SSW 8.7 km/h 9.3 km/h 33% 0.0 mm CLR
10:04 16.6 °C 0.2 °C 1025.4 hPa SW 8.7 km/h 11.1 km/h 33% 0.0 mm CLR
10:09 16.9 °C 0.1 °C 1025.4 hPa SSW 8.4 km/h 14.8 km/h 32% 0.0 mm CLR
10:14 17.1 °C 0.3 °C 1025.4 hPa SSW 8.4 km/h 16.7 km/h 32% 0.0 mm CLR
10:19 17.3 °C 0.4 °C 1025.5 hPa SSW 10.0 km/h 16.7 km/h 32% 0.0 mm CLR
10:24 17.6 °C 0.3 °C 1025.5 hPa SW 10.0 km/h 14.8 km/h 31% 0.0 mm CLR
10:29 17.9 °C 0.5 °C 1025.5 hPa SW 9.5 km/h 13.0 km/h 31% 0.0 mm CLR
10:34 18.1 °C 0.2 °C 1025.4 hPa SW 9.5 km/h 16.7 km/h 30% 0.0 mm CLR
10:39 18.3 °C 0.9 °C 1025.4 hPa SW 10.0 km/h 13.7 km/h 31% 0.0 mm CLR
10:44 18.6 °C 1.1 °C 1025.4 hPa SSW 10.0 km/h 11.1 km/h 31% 0.0 mm CLR
10:49 18.9 °C 1.4 °C 1025.3 hPa SW 8.4 km/h 9.3 km/h 31% 0.0 mm CLR
10:54 19.2 °C 1.2 °C 1025.3 hPa SW 8.4 km/h 14.8 km/h 30% 0.0 mm CLR
10:59 19.3 °C 1.3 °C 1025.3 hPa WSW 8.7 km/h 9.3 km/h 30% 0.0 mm CLR
11:04 19.6 °C 1.1 °C 1025.2 hPa SW 8.7 km/h 11.9 km/h 29% 0.0 mm CLR
11:09 19.8 °C 1.2 °C 1025.2 hPa WSW 7.6 km/h 9.3 km/h 29% 0.0 mm CLR
11:14 20.0 °C 0.9 °C 1025.2 hPa SW 7.6 km/h 11.1 km/h 28% 0.0 mm CLR
11:19 20.3 °C 0.7 °C 1025.1 hPa SSW 6.9 km/h 13.0 km/h 27% 0.0 mm CLR
11:24 20.4 °C 0.2 °C 1025.1 hPa SSW 6.9 km/h 13.0 km/h 26% 0.0 mm CLR
11:29 20.7 °C 0.5 °C 1025.1 hPa SSW 8.4 km/h 16.7 km/h 26% 0.0 mm CLR
11:34 20.9 °C 0.7 °C 1025.0 hPa SW 8.4 km/h 9.5 km/h 26% 0.0 mm CLR
11:39 21.1 °C 0.3 °C 1025.0 hPa SW 6.9 km/h 14.8 km/h 25% 0.0 mm CLR
11:44 21.1 °C 0.3 °C 1025.0 hPa SW 6.9 km/h 13.0 km/h 25% 0.0 mm CLR
11:49 21.2 °C 0.4 °C 1024.9 hPa SW 8.7 km/h 14.8 km/h 25% 0.0 mm CLR
11:54 21.4 °C 0.6 °C 1024.9 hPa SW 8.7 km/h 9.5 km/h 25% 0.0 mm CLR
11:59 21.7 °C 0.2 °C 1024.9 hPa SSW 7.6 km/h 11.1 km/h 24% 0.0 mm CLR
12:04 21.8 °C 0.3 °C 1024.8 hPa SSW 7.6 km/h 10.0 km/h 24% 0.0 mm CLR
12:09 22.0 °C 0.5 °C 1024.8 hPa SW 7.6 km/h 11.1 km/h 24% 0.0 mm CLR
12:14 22.3 °C 0.2 °C 1024.8 hPa SW 7.6 km/h 10.0 km/h 23% 0.0 mm CLR
12:19 22.4 °C 0.2 °C 1024.6 hPa SW 6.9 km/h 10.0 km/h 23% 0.0 mm CLR
12:24 22.5 °C 0.3 °C 1024.6 hPa SSW 6.9 km/h 13.0 km/h 23% 0.0 mm CLR
12:29 22.7 °C 0.5 °C 1024.6 hPa SW 7.6 km/h 8.7 km/h 23% 0.0 mm CLR
12:34 22.9 °C 0.1 °C 1024.5 hPa West 7.6 km/h 9.3 km/h 22% 0.0 mm CLR
12:39 23.2 °C 0.3 °C 1024.5 hPa SW 5.8 km/h 20.4 km/h 22% 0.0 mm CLR
12:44 23.3 °C -0.3 °C 1024.5 hPa SW 5.8 km/h 18.5 km/h 21% 0.0 mm CLR
12:49 23.3 °C 0.4 °C 1024.3 hPa WNW 10.3 km/h 11.1 km/h 22% 0.0 mm CLR
12:54 23.4 °C -0.2 °C 1024.3 hPa WSW 10.3 km/h 7.6 km/h 21% 0.0 mm CLR
12:59 23.6 °C 0.0 °C 1024.3 hPa WNW 6.4 km/h 9.3 km/h 21% 0.0 mm CLR
13:04 23.8 °C 0.2 °C 1024.1 hPa West 6.4 km/h 16.7 km/h 21% 0.0 mm CLR
13:09 23.9 °C -0.4 °C 1024.1 hPa WSW 8.4 km/h 22.2 km/h 20% 0.0 mm CLR
13:14 23.9 °C -0.4 °C 1024.1 hPa WNW 8.4 km/h 18.5 km/h 20% 0.0 mm CLR
13:19 23.9 °C 0.2 °C 1023.8 hPa WNW 12.2 km/h 16.7 km/h 21% 0.0 mm CLR
13:24 24.1 °C 0.4 °C 1023.8 hPa WSW 12.2 km/h 16.7 km/h 21% 0.0 mm CLR
13:29 24.3 °C -0.1 °C 1023.8 hPa WSW 11.1 km/h 13.0 km/h 20% 0.0 mm CLR
13:34 24.3 °C -0.1 °C 1023.6 hPa WSW 11.1 km/h 14.8 km/h 20% 0.0 mm CLR
13:39 24.6 °C 0.1 °C 1023.6 hPa WSW 10.0 km/h 11.1 km/h 20% 0.0 mm CLR
13:44 24.7 °C 0.2 °C 1023.6 hPa SSW 10.0 km/h 13.0 km/h 20% 0.0 mm CLR
13:49 24.6 °C 0.1 °C 1023.4 hPa West 7.6 km/h 11.1 km/h 20% 0.0 mm CLR
13:54 24.7 °C -0.5 °C 1023.4 hPa SSE 7.6 km/h 7.4 km/h 19% 0.0 mm CLR
13:59 24.8 °C -1.2 °C 1023.4 hPa West 6.4 km/h 16.7 km/h 18% 0.0 mm CLR
14:04 24.8 °C -1.2 °C 1023.2 hPa West 6.4 km/h 13.0 km/h 18% 0.0 mm CLR
14:09 24.9 °C -0.3 °C 1023.2 hPa WNW 9.5 km/h 11.1 km/h 19% 0.0 mm CLR
14:14 25.0 °C -1.0 °C 1023.2 hPa WSW 9.5 km/h 11.1 km/h 18% 0.0 mm CLR
14:19 25.1 °C -0.9 °C 1022.8 hPa WNW 6.9 km/h 11.1 km/h 18% 0.0 mm CLR
14:24 25.3 °C -0.7 °C 1022.8 hPa SSW 6.9 km/h 8.7 km/h 18% 0.0 mm CLR
14:29 25.4 °C -0.7 °C 1022.8 hPa SW 5.8 km/h 11.1 km/h 18% 0.0 mm CLR
14:34 25.4 °C -0.7 °C 1022.6 hPa SW 5.8 km/h 8.4 km/h 18% 0.0 mm CLR
14:39 25.5 °C -0.6 °C 1022.6 hPa South 6.9 km/h 7.4 km/h 18% 0.0 mm CLR
14:44 25.7 °C -0.4 °C 1022.6 hPa WSW 6.9 km/h 14.8 km/h 18% 0.0 mm CLR
14:49 25.7 °C -1.2 °C 1022.5 hPa West 7.6 km/h 13.0 km/h 17% 0.0 mm CLR
14:54 25.8 °C -1.1 °C 1022.5 hPa WSW 7.6 km/h 11.1 km/h 17% 0.0 mm CLR
14:59 25.9 °C -1.1 °C 1022.5 hPa WSW 6.4 km/h 11.1 km/h 17% 0.0 mm CLR
15:04 26.1 °C -1.7 °C 1022.3 hPa South 6.4 km/h 7.4 km/h 16% 0.0 mm CLR
15:09 26.1 °C -1.7 °C 1022.3 hPa SW 6.4 km/h 9.3 km/h 16% 0.0 mm CLR
15:14 26.2 °C -1.6 °C 1022.3 hPa NW 6.4 km/h 7.4 km/h 16% 0.0 mm CLR
15:19 26.3 °C -1.6 °C 1022.1 hPa NW 4.7 km/h 3.2 km/h 16% 0.0 mm CLR
15:24 26.5 °C -1.4 °C 1022.1 hPa ESE 4.7 km/h 9.5 km/h 16% 0.0 mm CLR
15:29 26.5 °C -1.4 °C 1022.1 hPa SSW 3.9 km/h 9.3 km/h 16% 0.0 mm CLR
15:34 26.6 °C -2.2 °C 1022.1 hPa SSE 3.9 km/h 9.3 km/h 15% 0.0 mm CLR
15:39 26.6 °C -3.1 °C 1022.1 hPa SSW 6.4 km/h 7.4 km/h 14% 0.0 mm CLR
15:44 26.6 °C -3.1 °C 1022.1 hPa SSE 6.4 km/h 5.6 km/h 14% 0.0 mm CLR
15:49 26.8 °C -2.9 °C 1022.0 hPa ESE 4.7 km/h 5.6 km/h 14% 0.0 mm CLR
15:54 26.8 °C -2.9 °C 1022.0 hPa SW 4.7 km/h 5.8 km/h 14% 0.0 mm CLR
15:59 27.0 °C -2.8 °C 1022.0 hPa SW 3.9 km/h 7.4 km/h 14% 0.0 mm CLR
16:04 27.1 °C -2.7 °C 1021.9 hPa SW 3.9 km/h 5.6 km/h 14% 0.0 mm CLR
16:09 26.9 °C -2.9 °C 1021.9 hPa SW 4.7 km/h 3.7 km/h 14% 0.0 mm CLR
16:14 26.9 °C -3.9 °C 1021.9 hPa ESE 4.7 km/h 7.4 km/h 13% 0.0 mm CLR
16:19 26.8 °C -5.0 °C 1021.8 hPa ESE 3.9 km/h 3.7 km/h 12% 0.0 mm CLR
16:24 27.2 °C -4.7 °C 1021.8 hPa ESE 3.9 km/h 3.7 km/h 12% 0.0 mm CLR
16:29 27.4 °C -4.6 °C 1021.8 hPa ESE 2.3 km/h   12% 0.0 mm CLR
16:34 27.6 °C -3.3 °C 1021.7 hPa ENE 2.3 km/h 7.4 km/h 13% 0.0 mm CLR
16:39 27.4 °C -3.5 °C 1021.7 hPa ESE 3.2 km/h 8.4 km/h 13% 0.0 mm CLR
16:44 26.9 °C -1.1 °C 1021.7 hPa East 3.2 km/h 16.7 km/h 16% 0.0 mm CLR
16:49 26.7 °C 2.6 °C 1021.5 hPa East 8.7 km/h 13.0 km/h 21% 0.0 mm CLR
16:54 26.4 °C 3.6 °C 1021.5 hPa ESE 8.7 km/h 22.2 km/h 23% 0.0 mm CLR
16:59 26.4 °C 3.6 °C 1021.5 hPa SSE 11.9 km/h 14.8 km/h 23% 0.0 mm CLR
17:04 26.1 °C 3.3 °C 1021.4 hPa ESE 11.9 km/h 18.5 km/h 23% 0.0 mm CLR
17:09 25.9 °C 3.2 °C 1021.4 hPa East 13.7 km/h 22.2 km/h 23% 0.0 mm CLR
17:14 25.9 °C 2.6 °C 1021.4 hPa ESE 13.7 km/h 20.4 km/h 22% 0.0 mm CLR
17:19 25.8 °C 1.8 °C 1021.4 hPa ESE 13.0 km/h 20.4 km/h 21% 0.0 mm CLR
17:24 25.8 °C 1.8 °C 1021.4 hPa ESE 13.0 km/h 17.2 km/h 21% 0.0 mm CLR
17:29 25.8 °C 1.1 °C 1021.4 hPa ESE 13.0 km/h 14.8 km/h 20% 0.0 mm CLR
17:34 25.6 °C 0.9 °C 1021.4 hPa SE 13.0 km/h 25.9 km/h 20% 0.0 mm CLR
17:39 25.4 °C 0.8 °C 1021.4 hPa SE 13.7 km/h 14.8 km/h 20% 0.0 mm CLR
17:44 25.3 °C 0.7 °C 1021.4 hPa ESE 13.7 km/h 16.7 km/h 20% 0.0 mm CLR
17:49 25.1 °C -0.2 °C 1021.4 hPa SE 11.9 km/h 18.5 km/h 19% 0.0 mm CLR
17:54 24.9 °C -0.3 °C 1021.4 hPa ESE 11.9 km/h 20.4 km/h 19% 0.0 mm CLR
17:59 24.7 °C -0.5 °C 1021.4 hPa ESE 11.9 km/h 16.7 km/h 19% 0.0 mm CLR
18:04 24.6 °C 0.8 °C 1021.6 hPa NW 11.9 km/h 7.4 km/h 21% 0.0 mm CLR
18:09 24.4 °C 1.3 °C 1021.6 hPa North 6.4 km/h 8.4 km/h 22% 0.0 mm CLR
18:14 23.7 °C 4.1 °C 1021.6 hPa NNE 6.4 km/h 18.5 km/h 28% 0.0 mm CLR
18:19 23.1 °C 4.1 °C 1021.7 hPa NE 8.4 km/h 13.0 km/h 29% 0.0 mm CLR
18:24 22.6 °C 3.7 °C 1021.7 hPa NE 8.4 km/h 20.4 km/h 29% 0.0 mm CLR
18:29 22.1 °C 3.7 °C 1021.7 hPa NNE 11.1 km/h 13.0 km/h 30% 0.0 mm CLR
18:34 21.6 °C 3.7 °C 1021.9 hPa NNE 11.1 km/h 22.2 km/h 31% 0.0 mm CLR
18:39 21.2 °C 3.4 °C 1021.9 hPa NNE 11.1 km/h 24.1 km/h 31% 0.0 mm CLR
18:44 21.0 °C 3.2 °C 1021.9 hPa NE 11.1 km/h 22.2 km/h 31% 0.0 mm CLR
18:49 20.7 °C 3.4 °C 1022.0 hPa NNE 16.1 km/h 20.4 km/h 32% 0.0 mm CLR
18:54 20.3 °C 3.1 °C 1022.0 hPa North 16.1 km/h 20.4 km/h 32% 0.0 mm CLR
18:59 19.9 °C 3.1 °C 1022.0 hPa NE 14.0 km/h 25.9 km/h 33% 0.0 mm CLR
19:04 19.5 °C 3.6 °C 1022.2 hPa NE 14.0 km/h 20.4 km/h 35% 0.0 mm CLR
19:09 19.2 °C 4.2 °C 1022.2 hPa NE 17.2 km/h 22.2 km/h 37% 0.0 mm CLR
19:14 18.9 °C 4.3 °C 1022.2 hPa NE 17.2 km/h 20.4 km/h 38% 0.0 mm CLR
19:19 18.7 °C 4.4 °C 1022.4 hPa NNE 15.6 km/h 16.7 km/h 39% 0.0 mm CLR
19:24 18.5 °C 4.3 °C 1022.4 hPa NE 15.6 km/h 24.1 km/h 39% 0.0 mm CLR
19:29 18.3 °C 4.1 °C 1022.4 hPa NNE 14.0 km/h 22.2 km/h 39% 0.0 mm CLR
19:34 18.1 °C 4.3 °C 1022.6 hPa NNE 14.0 km/h 20.4 km/h 40% 0.0 mm CLR
19:39 17.9 °C 4.4 °C 1022.6 hPa NNE 14.0 km/h 20.1 km/h 41% 0.0 mm CLR
19:44 17.7 °C 4.9 °C 1022.6 hPa NE 14.0 km/h 22.2 km/h 43% 0.0 mm CLR
19:49 17.6 °C 5.8 °C 1022.9 hPa NNE 13.7 km/h 22.2 km/h 46% 0.0 mm CLR
19:54 17.4 °C 6.6 °C 1022.9 hPa NNE 13.7 km/h 24.1 km/h 49% 0.0 mm CLR
19:59 17.3 °C 7.1 °C 1022.9 hPa NNE 14.8 km/h 22.2 km/h 51% 0.0 mm CLR
20:04 17.2 °C 7.6 °C 1023.1 hPa North 14.8 km/h 22.2 km/h 53% 0.0 mm CLR
20:09 17.0 °C 7.9 °C 1023.1 hPa NNE 14.0 km/h 20.4 km/h 55% 0.0 mm CLR
20:14 16.9 °C 8.1 °C 1023.1 hPa NE 14.0 km/h 16.7 km/h 56% 0.0 mm CLR
20:19 16.8 °C 7.7 °C 1023.2 hPa NNE 13.7 km/h 20.4 km/h 55% 0.0 mm CLR
20:24 16.7 °C 7.6 °C 1023.2 hPa NE 13.7 km/h 15.6 km/h 55% 0.0 mm CLR
20:29 16.6 °C 7.5 °C 1023.2 hPa NE 11.9 km/h 18.5 km/h 55% 0.0 mm CLR
20:34 16.4 °C 7.3 °C 1023.3 hPa NE 11.9 km/h 16.7 km/h 55% 0.0 mm CLR
20:39 16.3 °C 6.9 °C 1023.3 hPa NNE 11.1 km/h 11.1 km/h 54% 0.0 mm CLR
20:44 16.2 °C 6.6 °C 1023.3 hPa NE 11.1 km/h 11.1 km/h 53% 0.0 mm CLR
20:49 16.2 °C 6.9 °C 1023.5 hPa NNE 8.4 km/h 9.3 km/h 54% 0.0 mm CLR
20:54 16.1 °C 7.1 °C 1023.5 hPa NNE 8.4 km/h 9.3 km/h 55% 0.0 mm CLR
20:59 15.9 °C 7.1 °C 1023.5 hPa NNE 6.4 km/h 10.0 km/h 56% 0.0 mm CLR
21:04 15.8 °C 7.6 °C 1023.6 hPa North 6.4 km/h 9.3 km/h 58% 0.0 mm CLR
21:09 15.8 °C 7.6 °C 1023.6 hPa NNW 5.8 km/h 6.4 km/h 58% 0.0 mm CLR
21:14 15.7 °C 8.2 °C 1023.6 hPa NNW 5.8 km/h 9.3 km/h 61% 0.0 mm CLR
21:19 15.5 °C 8.5 °C 1023.7 hPa North 5.0 km/h 9.3 km/h 63% 0.0 mm CLR
21:24 15.4 °C 8.6 °C 1023.7 hPa NE 5.0 km/h 8.4 km/h 64% 0.0 mm CLR
21:29 15.2 °C 8.7 °C 1023.7 hPa NNW 5.8 km/h 7.4 km/h 65% 0.0 mm CLR
21:34 15.2 °C 8.4 °C 1023.6 hPa NE 5.8 km/h 9.3 km/h 64% 0.0 mm CLR
21:39 15.1 °C 8.1 °C 1023.6 hPa NNE 5.8 km/h 7.4 km/h 63% 0.0 mm CLR
21:44 15.1 °C 8.1 °C 1023.6 hPa ENE 5.8 km/h 9.3 km/h 63% 0.0 mm CLR
21:49 15.1 °C 7.9 °C 1023.7 hPa ENE 5.8 km/h 3.7 km/h 62% 0.0 mm CLR
21:54 15.1 °C 7.9 °C 1023.7 hPa ENE 5.8 km/h   62% 0.0 mm CLR
21:59 15.1 °C 7.9 °C 1023.7 hPa Calm     62% 0.0 mm CLR
22:04 15.2 °C 7.7 °C 1023.7 hPa Calm     61% 0.0 mm CLR
22:09 15.2 °C 7.9 °C 1023.7 hPa Calm     62% 0.0 mm CLR
22:14 15.2 °C 7.9 °C 1023.7 hPa Calm   3.7 km/h 62% 0.0 mm CLR
22:19 15.1 °C 8.1 °C 1023.8 hPa Calm     63% 0.0 mm CLR
22:24 15.1 °C 8.1 °C 1023.8 hPa Calm     63% 0.0 mm CLR
22:29 15.0 °C 8.2 °C 1023.8 hPa Calm     64% 0.0 mm CLR
22:34 14.9 °C 7.9 °C 1023.7 hPa Calm     63% 0.0 mm CLR
22:39 14.9 °C 7.7 °C 1023.7 hPa Calm   4.7 km/h 62% 0.0 mm CLR
22:44 14.9 °C 7.4 °C 1023.7 hPa Calm   1.9 km/h 61% 0.0 mm CLR
22:49 14.9 °C 7.4 °C 1023.7 hPa ENE 2.3 km/h 1.9 km/h 61% 0.0 mm CLR
22:54 14.9 °C 7.4 °C 1023.7 hPa ENE 2.3 km/h 3.7 km/h 61% 0.0 mm CLR
22:59 14.8 °C 7.3 °C 1023.7 hPa ENE 2.3 km/h 5.8 km/h 61% 0.0 mm CLR
23:04 14.8 °C 7.1 °C 1023.7 hPa SSE 2.3 km/h 3.7 km/h 60% 0.0 mm CLR
23:09 14.8 °C 7.3 °C 1023.7 hPa SSE 3.2 km/h 3.7 km/h 61% 0.0 mm CLR
23:14 14.7 °C 7.3 °C 1023.7 hPa SSE 3.2 km/h 3.2 km/h 61% 0.0 mm CLR
23:19 14.7 °C 7.3 °C 1023.6 hPa SSE 2.3 km/h 4.7 km/h 61% 0.0 mm CLR
23:24 14.7 °C 7.0 °C 1023.6 hPa South 2.3 km/h 5.8 km/h 60% 0.0 mm CLR
23:29 14.7 °C 7.0 °C 1023.6 hPa South 3.9 km/h 7.4 km/h 60% 0.0 mm CLR
23:34 14.6 °C 6.9 °C 1023.6 hPa South 3.9 km/h 7.4 km/h 60% 0.0 mm CLR
23:39 14.5 °C 6.8 °C 1023.6 hPa South 4.7 km/h 7.4 km/h 60% 0.0 mm CLR
23:44 14.4 °C 6.7 °C 1023.6 hPa SSE 4.7 km/h 7.4 km/h 60% 0.0 mm CLR
23:49 14.4 °C 6.5 °C 1023.7 hPa SSE 4.7 km/h 4.7 km/h 59% 0.0 mm CLR
23:54 14.3 °C 6.4 °C 1023.7 hPa SSE 4.7 km/h 5.6 km/h 59% 0.0 mm CLR
23:59 14.3 °C 6.4 °C 1023.7 hPa SSE 3.2 km/h 5.0 km/h 59% 0.0 mm CLR
Murcia-Puente Tocinos, España
Compliments of Weather Underground - 2.75 mb

La estación de MeteoMurcia.com, publica sus datos en los siguientes proyectos:

Weather Underground PWS IMURCIAP2 Meteoclimatic www.awekas.at

W3Counter
Web Analytics